INFORMAÇÕES METEOROLÓGICAS
METAR FOR VABB
ADDS - METARS form results

(0245 UTC 19 January 2021)
Data provider http://aviationweather.gov/metar/data/
 
METAR text: VABB 190230Z VRB03KT 2500 HZ FEW020 25/14 Q1012 NOSIG
Conditions at: VABB (BOMBAY/SANTACRUZ, IN) observed 0230 UTC 19 January 2021
Temperature: 25.0°C (77°F)
Dewpoint: 14.0°C (57°F) [RH = 50%]
Pressure (altimeter): 29.88 inches Hg (1012.0 mb)
Winds: variable direction winds at 3 MPH (3 knots; 1.5 m/s)
Visibility: 1.55 miles (2.49 km)
Ceiling: at least 12,000 feet AGL
Clouds: few clouds at 2000 feet AGL
Weather: HZ  (haze)

METAR text: VABB 190200Z 32004KT 2500 HZ FEW020 24/14 Q1012 NOSIG
Conditions at: VABB (BOMBAY/SANTACRUZ, IN) observed 0200 UTC 19 January 2021
Temperature: 24.0°C (75°F)
Dewpoint: 14.0°C (57°F) [RH = 54%]
Pressure (altimeter): 29.88 inches Hg (1012.0 mb)
Winds: from the NW (320 degrees) at 5 MPH (4 knots; 2.1 m/s)
Visibility: 1.55 miles (2.49 km)
Ceiling: at least 12,000 feet AGL
Clouds: few clouds at 2000 feet AGL
Weather: HZ  (haze)

Forecast for: VABB (BOMBAY/SANTACRUZ, IN)
Text: TAF VABB 190200Z 1903/1912 03005KT 3000 HZ FU FEW100
Forecast period: 0300 to 0600 UTC 19 January 2021
Forecast type: FROM: standard forecast or significant change
Winds: from the NNE (30 degrees) at 6 MPH (5 knots; 2.6 m/s)
Visibility: 1.86 miles (2.99 km)
Ceiling: at least 12,000 feet AGL
Clouds: few clouds at 10000 feet AGL
Weather: HZ FU  (haze, smoke)
Text: BECMG 1906/1908 27008KT 4000 HZ FU NSC
Forecast period: 0600 to 1200 UTC 19 January 2021
Forecast type: BECOMING: Conditions expected to become as follows by 0800 UTC 19 January 2021
Winds: from the W (270 degrees) at 9 MPH (8 knots; 4.1 m/s)
Visibility: 2.49 miles (4.01 km)
Ceiling: unknown
Clouds: missing
Weather: HZ FU  (haze, smoke)

 MAPA DO AEROPORTO

 INFORMAÇÕES DA PISTA
Pista 09 Tamanho da pista 11302 ft Largura da pista 148 ft
Elevação da pista 15 ft Ranhura da pista 465 ft Proa da pista 89
Pista 27 Tamanho da pista 11302 ft Largura da pista 148 ft
Elevação da pista 22 ft Ranhura da pista 1581 ft Proa da pista 269
Pista 14 Tamanho da pista 9596 ft Largura da pista 150 ft
Elevação da pista 37 ft Ranhura da pista 1238 ft Proa da pista 134
Pista 32 Tamanho da pista 9596 ft Largura da pista 150 ft
Elevação da pista 26 ft Ranhura da pista 853 ft Proa da pista 314

 FREQUÊNCIAS DO AEROPORTO
Tipo ACC Nome MUMBAI Frequência 120.5 MHZ
Tipo APP Nome MUMBAI APP Frequência 127.9 MHZ
Tipo ATIS Nome MUMBAI ATI Frequência 126.4 MHZ
Tipo CLD Nome MUMBAI CLR Frequência 121.85 MHZ
Tipo GND Nome MUMBAI GND Frequência 121.9 MHZ
Tipo RDO Nome MUMBAI RDO Frequência 1008.4 MHZ
Tipo RDR Nome RDR Frequência 119.3 MHZ
Tipo TWR Nome MUMBAI TWR Frequência 118.1 MHZ

 AUXÍLIOS DE NAVEGAÇÃO PRÓXIMOS AO AEROPORTO
Tipo VOR-DME Nome Mumbai Frequência 116600 KHZ



Redes oficiais, softwares e parceiros.

                             

2021 Dream Sky Virtual Airlines


Social-bar